logo
Search for airport 
image banner adimage banner adimage banner ad
image banner ad

EDOD - Reinsdorf

Located in Reinsdorf, Germany

ICAO - EDOD, IATA -

Data provided by Airmate  

General information

Coordinates: N51°54'4" E13°11'39"
Elevation is 335 feet MSL.
Magnetic variation is 4.0000° East
View others Airports in Brandenburg

Operational data

Special qualification required
Current time UTC:
Current local time:
Weather at : ETSH - Holzdorf ( 15 km )
METAR: ETSH 162020Z 25004KT 9999 FEW070 21/12 Q1014 BLU+BLU+
TAF: TAF ETSH 161931Z 1620/1705 25010KT 9999 NSW FEW060 SCT120
View NOTAMs / SUP AIP / TFR affecting this airport [VIEW]
Communications frequencies: [VIEW]

Runways:

RWY identifierQFULength (ft)Width (ft)SurfaceLDA (ft)
10100°4199131GRASS4199
28280°4199131GRASS4199

Airport contact information

Address: Reinsdorf Germany

Satellite view of EDOD